createdAt,value
2023-02-11T00:00:26.516Z,1011.16
2023-02-11T00:01:26.542Z,1011.09
2023-02-11T00:02:26.517Z,1011.07
2023-02-11T00:03:26.570Z,1010.99
2023-02-11T00:04:26.484Z,1010.98
2023-02-11T00:05:26.482Z,1011.06
2023-02-11T00:06:26.494Z,1010.98
2023-02-11T00:07:26.457Z,1010.97
2023-02-11T00:08:26.445Z,1010.84
2023-02-11T00:09:26.441Z,1010.89
2023-02-11T00:10:26.441Z,1010.83
2023-02-11T00:11:26.495Z,1010.82
2023-02-11T00:12:26.411Z,1010.84
2023-02-11T00:13:26.422Z,1010.93
2023-02-11T00:14:26.412Z,1010.99
2023-02-11T00:15:26.401Z,1011.01
2023-02-11T00:16:26.489Z,1011.01
2023-02-11T00:17:26.379Z,1011.00
2023-02-11T00:18:26.379Z,1010.96
2023-02-11T00:19:26.357Z,1010.89
2023-02-11T00:20:26.364Z,1010.83
2023-02-11T00:21:26.381Z,1010.83
2023-02-11T00:22:26.340Z,1010.78
2023-02-11T00:23:27.336Z,1010.77
2023-02-11T00:24:26.321Z,1010.85
2023-02-11T00:25:26.311Z,1010.73
2023-02-11T00:26:26.350Z,1010.70
2023-02-11T00:27:26.303Z,1010.64
2023-02-11T00:28:26.301Z,1010.61
2023-02-11T00:29:26.284Z,1010.60
2023-02-11T00:30:26.299Z,1010.59
2023-02-11T00:31:26.450Z,1010.57
2023-02-11T00:32:26.257Z,1010.55
2023-02-11T00:33:26.245Z,1010.56
2023-02-11T00:34:26.239Z,1010.54
2023-02-11T00:35:26.228Z,1010.50
2023-02-11T00:36:26.261Z,1010.43
2023-02-11T00:37:26.217Z,1010.43
2023-02-11T00:38:26.212Z,1010.47
2023-02-11T00:39:26.200Z,1010.39
2023-02-11T00:40:26.194Z,1010.41
2023-02-11T00:41:26.225Z,1010.33
2023-02-11T00:42:26.178Z,1010.36
2023-02-11T00:43:26.173Z,1010.33
2023-02-11T00:44:26.156Z,1010.32
2023-02-11T00:45:26.162Z,1010.28
2023-02-11T00:46:26.196Z,1010.20
2023-02-11T00:47:26.144Z,1010.21
2023-02-11T00:48:26.138Z,1010.18
2023-02-11T00:49:26.141Z,1010.19
2023-02-11T00:50:26.129Z,1010.21
2023-02-11T00:51:26.145Z,1010.14
2023-02-11T00:52:26.100Z,1010.16
2023-02-11T00:53:26.100Z,1010.12
2023-02-11T00:54:28.389Z,1010.16
2023-02-11T00:55:26.084Z,1010.14
2023-02-11T00:56:26.114Z,1010.10
2023-02-11T00:57:26.057Z,1010.11
2023-02-11T00:58:26.054Z,1010.06
2023-02-11T00:59:26.061Z,1010.08
2023-02-11T01:00:26.045Z,1010.03
2023-02-11T01:01:26.077Z,1009.96
2023-02-11T01:02:26.056Z,1009.96
2023-02-11T01:03:26.028Z,1009.97
2023-02-11T01:04:26.007Z,1009.93
2023-02-11T01:05:26.036Z,1009.84
2023-02-11T01:06:26.003Z,1009.86
2023-02-11T01:07:26.024Z,1009.84
2023-02-11T01:08:25.980Z,1009.93
2023-02-11T01:09:25.967Z,1009.92
2023-02-11T01:10:25.960Z,1009.88
2023-02-11T01:11:25.962Z,1009.91
2023-02-11T01:12:25.977Z,1009.90
2023-02-11T01:13:25.953Z,1009.86
2023-02-11T01:14:25.939Z,1009.79
2023-02-11T01:15:25.931Z,1009.78
2023-02-11T01:16:25.945Z,1009.81
2023-02-11T01:17:25.940Z,1009.79
2023-02-11T01:18:25.908Z,1009.80
2023-02-11T01:19:25.926Z,1009.77
2023-02-11T01:20:25.888Z,1009.79
2023-02-11T01:21:25.878Z,1009.79
2023-02-11T01:22:25.900Z,1009.78
2023-02-11T01:23:25.868Z,1009.91
2023-02-11T01:24:25.859Z,1009.86
2023-02-11T01:25:25.853Z,1009.92
2023-02-11T01:26:25.843Z,1009.88
2023-02-11T01:27:25.852Z,1009.89
2023-02-11T01:28:25.868Z,1009.92
2023-02-11T01:29:25.828Z,1009.98
2023-02-11T01:30:25.810Z,1009.97
2023-02-11T01:31:25.865Z,1010.00
2023-02-11T01:32:25.823Z,1009.97
2023-02-11T01:33:25.794Z,1009.96
2023-02-11T01:34:25.790Z,1009.91
2023-02-11T01:35:25.773Z,1009.87
2023-02-11T01:36:25.768Z,1009.96
2023-02-11T01:37:25.787Z,1009.88
2023-02-11T01:38:25.752Z,1009.90
2023-02-11T01:39:25.742Z,1009.81
2023-02-11T01:40:25.738Z,1009.85
2023-02-11T01:41:25.727Z,1009.84
2023-02-11T01:42:25.747Z,1009.86
2023-02-11T01:43:25.712Z,1009.91
2023-02-11T01:44:25.712Z,1009.87
2023-02-11T01:45:25.698Z,1009.88
2023-02-11T01:46:25.716Z,1009.90
2023-02-11T01:47:25.709Z,1009.87
2023-02-11T01:48:25.686Z,1009.81
2023-02-11T01:49:25.772Z,1009.87
2023-02-11T01:50:25.659Z,1009.90
2023-02-11T01:51:25.659Z,1009.86
2023-02-11T01:52:25.669Z,1009.87
2023-02-11T01:53:25.641Z,1009.90
2023-02-11T01:54:25.627Z,1009.89
2023-02-11T01:55:25.626Z,1009.90
2023-02-11T01:56:25.613Z,1009.88
2023-02-11T01:57:25.635Z,1009.90
2023-02-11T01:58:25.601Z,1009.96
2023-02-11T01:59:25.598Z,1009.98
2023-02-11T02:00:25.588Z,1009.93
2023-02-11T02:01:25.603Z,1009.98
2023-02-11T02:02:25.592Z,1009.99
2023-02-11T02:03:25.607Z,1009.99
2023-02-11T02:04:25.547Z,1010.03
2023-02-11T02:05:25.543Z,1010.03
2023-02-11T02:06:25.542Z,1010.01
2023-02-11T02:07:25.566Z,1010.04
2023-02-11T02:08:25.527Z,1010.04
2023-02-11T02:09:25.530Z,1010.04
2023-02-11T02:10:25.512Z,1010.00
2023-02-11T02:11:25.500Z,1010.06
2023-02-11T02:12:25.526Z,1010.04
2023-02-11T02:13:25.482Z,1010.05
2023-02-11T02:14:25.479Z,1010.04
2023-02-11T02:15:25.480Z,1010.01
2023-02-11T02:16:25.481Z,1010.07
2023-02-11T02:17:25.482Z,1010.08
2023-02-11T02:18:25.436Z,1010.14
2023-02-11T02:19:25.430Z,1010.15
2023-02-11T02:20:25.430Z,1010.03
2023-02-11T02:21:25.420Z,1010.07
2023-02-11T02:22:25.402Z,1010.09
2023-02-11T02:23:26.424Z,1010.03
2023-02-11T02:24:25.408Z,1009.97
2023-02-11T02:25:25.385Z,1009.95
2023-02-11T02:26:25.384Z,1009.95
2023-02-11T02:27:25.381Z,1009.96
2023-02-11T02:28:25.468Z,1009.96
2023-02-11T02:29:25.362Z,1010.01
2023-02-11T02:30:25.395Z,1009.96
2023-02-11T02:31:25.359Z,1009.94
2023-02-11T02:32:25.342Z,1009.84
2023-02-11T02:33:25.368Z,1009.83
2023-02-11T02:34:25.334Z,1009.72
2023-02-11T02:35:25.325Z,1009.72
2023-02-11T02:36:25.320Z,1009.71
2023-02-11T02:37:25.298Z,1009.71
2023-02-11T02:38:25.326Z,1009.71
2023-02-11T02:39:25.284Z,1009.71
2023-02-11T02:40:25.275Z,1009.64
2023-02-11T02:41:25.273Z,1009.62
2023-02-11T02:42:25.262Z,1009.63
2023-02-11T02:43:25.268Z,1009.59
2023-02-11T02:44:25.245Z,1009.53
2023-02-11T02:45:25.237Z,1009.48
2023-02-11T02:46:25.288Z,1009.47
2023-02-11T02:47:25.216Z,1009.46
2023-02-11T02:48:25.244Z,1009.45
2023-02-11T02:49:25.210Z,1009.35
2023-02-11T02:50:25.200Z,1009.33
2023-02-11T02:51:25.190Z,1009.26
2023-02-11T02:52:25.178Z,1009.15
2023-02-11T02:53:25.203Z,1009.13
2023-02-11T02:54:25.176Z,1009.17
2023-02-11T02:55:25.158Z,1009.17
2023-02-11T02:56:25.169Z,1009.18
2023-02-11T02:57:25.139Z,1009.15
2023-02-11T02:58:25.177Z,1009.19
2023-02-11T02:59:25.133Z,1009.22
2023-02-11T03:00:25.125Z,1009.21
2023-02-11T03:01:25.117Z,1009.12
2023-02-11T03:02:25.102Z,1009.10
2023-02-11T03:03:25.111Z,1009.13
2023-02-11T03:04:25.087Z,1009.16
2023-02-11T03:05:25.073Z,1009.21
2023-02-11T03:06:25.071Z,1009.16
2023-02-11T03:07:25.057Z,1009.23
2023-02-11T03:08:25.083Z,1009.17
2023-02-11T03:09:25.050Z,1009.19
2023-02-11T03:10:25.047Z,1009.24
2023-02-11T03:11:25.034Z,1009.23
2023-02-11T03:12:25.019Z,1009.17
2023-02-11T03:13:25.046Z,1009.17
2023-02-11T03:14:25.005Z,1009.18
2023-02-11T03:15:25.005Z,1009.16
2023-02-11T03:16:25.074Z,1009.19
2023-02-11T03:17:24.982Z,1009.10
2023-02-11T03:18:25.000Z,1009.09
2023-02-11T03:19:24.963Z,1009.17
2023-02-11T03:20:24.965Z,1009.16
2023-02-11T03:21:24.955Z,1009.15
2023-02-11T03:22:24.943Z,1009.14
2023-02-11T03:23:24.976Z,1009.18
2023-02-11T03:24:24.932Z,1009.13
2023-02-11T03:25:24.921Z,1009.07
2023-02-11T03:26:24.912Z,1009.18
2023-02-11T03:27:24.913Z,1009.17
2023-02-11T03:28:24.973Z,1009.13
2023-02-11T03:29:24.893Z,1009.10
2023-02-11T03:30:24.884Z,1009.13
2023-02-11T03:31:24.990Z,1009.14
2023-02-11T03:32:24.878Z,1009.19
2023-02-11T03:33:24.893Z,1009.20
2023-02-11T03:34:24.864Z,1009.13
2023-02-11T03:35:24.842Z,1009.14
2023-02-11T03:36:24.842Z,1009.10
2023-02-11T03:37:24.843Z,1009.11
2023-02-11T03:38:24.823Z,1009.09
2023-02-11T03:39:24.849Z,1009.08
2023-02-11T03:40:24.808Z,1009.17
2023-02-11T03:41:24.802Z,1009.22
2023-02-11T03:42:24.799Z,1009.08
2023-02-11T03:43:24.822Z,1009.09
2023-02-11T03:44:24.796Z,1009.00
2023-02-11T03:45:24.771Z,1008.95
2023-02-11T03:46:24.758Z,1009.03
2023-02-11T03:47:24.748Z,1009.04
2023-02-11T03:48:24.744Z,1008.99
2023-02-11T03:49:24.768Z,1009.00
2023-02-11T03:50:24.721Z,1008.97
2023-02-11T03:51:24.726Z,1009.02
2023-02-11T03:52:24.739Z,1009.05
2023-02-11T03:53:24.710Z,1009.05
2023-02-11T03:54:24.718Z,1009.03
2023-02-11T03:55:24.691Z,1008.99
2023-02-11T03:56:24.687Z,1009.00
2023-02-11T03:57:24.666Z,1008.94
2023-02-11T03:58:24.665Z,1008.96
2023-02-11T03:59:24.692Z,1008.95
2023-02-11T04:00:24.654Z,1008.90
2023-02-11T04:01:24.712Z,1008.95
2023-02-11T04:02:24.648Z,1008.90
2023-02-11T04:03:24.643Z,1008.88
2023-02-11T04:04:24.645Z,1008.91
2023-02-11T04:05:24.612Z,1008.85
2023-02-11T04:06:24.597Z,1008.81
2023-02-11T04:07:24.599Z,1008.83
2023-02-11T04:08:24.583Z,1008.84
2023-02-11T04:09:24.606Z,1008.89
2023-02-11T04:10:24.573Z,1008.90
2023-02-11T04:11:24.567Z,1008.87
2023-02-11T04:12:24.568Z,1008.88
2023-02-11T04:13:24.540Z,1008.84
2023-02-11T04:14:24.560Z,1008.81
2023-02-11T04:15:24.529Z,1008.84
2023-02-11T04:16:24.554Z,1008.79
2023-02-11T04:17:24.528Z,1008.76
2023-02-11T04:18:25.509Z,1008.74
2023-02-11T04:19:24.521Z,1008.86
2023-02-11T04:20:24.494Z,1008.79
2023-02-11T04:21:24.513Z,1008.80
2023-02-11T04:22:24.473Z,1008.75
2023-02-11T04:23:24.474Z,1008.75
2023-02-11T04:24:24.482Z,1008.72
2023-02-11T04:25:24.452Z,1008.73
2023-02-11T04:26:24.446Z,1008.68
2023-02-11T04:27:24.438Z,1008.62
2023-02-11T04:28:24.467Z,1008.61
2023-02-11T04:29:24.450Z,1008.62
2023-02-11T04:30:24.412Z,1008.59
2023-02-11T04:31:24.536Z,1008.58
2023-02-11T04:32:24.437Z,1008.60
2023-02-11T04:33:24.431Z,1008.62
2023-02-11T04:34:24.435Z,1008.58
2023-02-11T04:35:24.370Z,1008.58
2023-02-11T04:36:24.379Z,1008.63
2023-02-11T04:37:24.371Z,1008.55
2023-02-11T04:38:24.350Z,1008.76
2023-02-11T04:39:24.377Z,1008.81
2023-02-11T04:40:24.334Z,1008.84
2023-02-11T04:41:24.323Z,1008.80
2023-02-11T04:42:24.329Z,1008.80
2023-02-11T04:43:24.313Z,1008.77
2023-02-11T04:44:24.328Z,1008.67
2023-02-11T04:45:24.299Z,1008.72
2023-02-11T04:46:24.340Z,1008.71
2023-02-11T04:47:24.285Z,1008.69
2023-02-11T04:48:24.265Z,1008.75
2023-02-11T04:49:24.287Z,1008.72
2023-02-11T04:50:24.275Z,1008.65
2023-02-11T04:51:24.247Z,1008.66
2023-02-11T04:52:24.247Z,1008.70
2023-02-11T04:53:24.253Z,1008.65
2023-02-11T04:54:24.271Z,1008.68
2023-02-11T04:55:24.214Z,1008.68
2023-02-11T04:56:24.220Z,1008.74
2023-02-11T04:57:24.205Z,1008.73
2023-02-11T04:58:24.196Z,1008.77
2023-02-11T04:59:24.188Z,1008.77
2023-02-11T05:00:24.203Z,1008.79
2023-02-11T05:01:24.246Z,1008.79
2023-02-11T05:02:24.181Z,1008.82
2023-02-11T05:03:24.157Z,1008.79
2023-02-11T05:04:24.212Z,1008.82
2023-02-11T05:05:24.172Z,1008.81
2023-02-11T05:06:24.136Z,1008.76
2023-02-11T05:07:24.125Z,1008.79
2023-02-11T05:08:24.115Z,1008.79
2023-02-11T05:09:24.103Z,1008.84
2023-02-11T05:10:24.132Z,1008.98
2023-02-11T05:11:24.087Z,1008.93
2023-02-11T05:12:24.074Z,1008.91
2023-02-11T05:13:24.070Z,1008.87
2023-02-11T05:14:24.072Z,1008.81
2023-02-11T05:15:24.095Z,1008.76
2023-02-11T05:16:24.079Z,1008.79
2023-02-11T05:17:24.042Z,1008.80
2023-02-11T05:18:24.039Z,1008.80
2023-02-11T05:19:24.023Z,1008.79
2023-02-11T05:20:24.041Z,1008.93
2023-02-11T05:21:24.012Z,1008.85
2023-02-11T05:22:24.005Z,1008.88
2023-02-11T05:23:23.998Z,1008.84
2023-02-11T05:24:23.999Z,1008.90
2023-02-11T05:25:24.001Z,1008.89
2023-02-11T05:26:23.971Z,1008.89
2023-02-11T05:27:23.960Z,1008.92
2023-02-11T05:28:24.028Z,1008.97
2023-02-11T05:29:23.951Z,1008.96
2023-02-11T05:30:23.969Z,1009.01
2023-02-11T05:31:23.954Z,1009.00
2023-02-11T05:32:23.925Z,1008.99
2023-02-11T05:33:23.916Z,1009.00
2023-02-11T05:34:23.914Z,1008.99
2023-02-11T05:35:23.915Z,1009.02
2023-02-11T05:36:24.895Z,1009.01
2023-02-11T05:37:23.942Z,1009.01
2023-02-11T05:38:23.876Z,1008.97
2023-02-11T05:39:23.866Z,1008.98
2023-02-11T05:40:23.899Z,1008.97
2023-02-11T05:41:23.862Z,1008.96
2023-02-11T05:42:23.844Z,1008.92
2023-02-11T05:43:23.833Z,1008.98
2023-02-11T05:44:23.830Z,1008.96
2023-02-11T05:45:23.855Z,1008.91
2023-02-11T05:46:23.869Z,1008.94
2023-02-11T05:47:23.813Z,1008.89
2023-02-11T05:48:23.812Z,1008.87
2023-02-11T05:49:23.798Z,1008.93
2023-02-11T05:50:23.806Z,1008.90
2023-02-11T05:51:23.779Z,1008.86
2023-02-11T05:52:23.772Z,1008.86
2023-02-11T05:53:23.764Z,1008.85
2023-02-11T05:54:23.759Z,1008.87
2023-02-11T05:55:23.769Z,1008.82
2023-02-11T05:56:23.740Z,1008.88
2023-02-11T05:57:23.731Z,1008.81
2023-02-11T05:58:23.721Z,1008.79
2023-02-11T05:59:23.713Z,1008.83
2023-02-11T06:00:23.745Z,1008.88
2023-02-11T06:01:23.704Z,1008.77
2023-02-11T06:02:23.726Z,1008.82
2023-02-11T06:03:23.751Z,1008.79
2023-02-11T06:04:23.682Z,1008.86
2023-02-11T06:05:23.695Z,1008.83
2023-02-11T06:06:23.658Z,1008.77
2023-02-11T06:07:23.662Z,1008.80
2023-02-11T06:08:23.657Z,1008.73
2023-02-11T06:09:23.637Z,1008.73
2023-02-11T06:10:23.649Z,1008.75
2023-02-11T06:11:23.617Z,1008.81
2023-02-11T06:12:23.621Z,1008.82
2023-02-11T06:13:23.602Z,1008.78
2023-02-11T06:14:23.606Z,1008.78
2023-02-11T06:15:23.616Z,1008.77
2023-02-11T06:16:23.656Z,1008.71
2023-02-11T06:17:23.569Z,1008.79
2023-02-11T06:18:23.564Z,1008.75
2023-02-11T06:19:23.554Z,1008.77
2023-02-11T06:20:23.585Z,1008.78
2023-02-11T06:21:26.461Z,1008.80
2023-02-11T06:22:25.535Z,1008.80
2023-02-11T06:23:23.565Z,1008.85
2023-02-11T06:24:44.296Z,1008.86
2023-02-11T06:25:25.543Z,1008.86
2023-02-11T06:26:23.521Z,1008.81
2023-02-11T06:27:23.501Z,1008.85
2023-02-11T06:28:23.542Z,1008.85
2023-02-11T06:29:23.488Z,1008.86
2023-02-11T06:30:23.505Z,1008.98
2023-02-11T06:31:23.576Z,1008.98
2023-02-11T06:32:43.464Z,1008.92
2023-02-11T06:33:25.476Z,1008.97
2023-02-11T06:34:23.443Z,1008.87
2023-02-11T06:35:23.456Z,1008.91
2023-02-11T06:36:23.472Z,1008.89
2023-02-11T06:37:23.424Z,1008.95
2023-02-11T06:38:23.418Z,1008.84
2023-02-11T06:39:23.407Z,1008.85
2023-02-11T06:40:23.415Z,1008.83
2023-02-11T06:41:23.415Z,1008.83
2023-02-11T06:42:23.381Z,1008.81
2023-02-11T06:43:23.382Z,1008.81
2023-02-11T06:44:23.366Z,1008.80
2023-02-11T06:45:23.370Z,1008.81
2023-02-11T06:46:23.507Z,1008.89
2023-02-11T06:47:23.344Z,1008.90
2023-02-11T06:48:23.338Z,1008.90
2023-02-11T06:49:23.333Z,1008.88
2023-02-11T06:50:23.322Z,1008.89
2023-02-11T06:51:23.339Z,1008.93
2023-02-11T06:52:23.310Z,1008.95
2023-02-11T06:53:23.302Z,1008.97
2023-02-11T06:54:23.291Z,1009.01
2023-02-11T06:55:23.283Z,1009.07
2023-02-11T06:56:23.300Z,1009.07
2023-02-11T06:57:23.262Z,1009.04
2023-02-11T06:58:23.265Z,1008.98
2023-02-11T06:59:23.254Z,1008.97
2023-02-11T07:00:23.247Z,1008.94
2023-02-11T07:01:23.310Z,1008.95
2023-02-11T07:02:23.230Z,1008.97
2023-02-11T07:03:23.218Z,1008.96
2023-02-11T07:04:23.207Z,1008.95
2023-02-11T07:05:23.236Z,1008.92
2023-02-11T07:06:23.229Z,1008.89
2023-02-11T07:07:23.181Z,1008.91
2023-02-11T07:08:23.178Z,1008.91
2023-02-11T07:09:23.176Z,1008.94
2023-02-11T07:10:23.162Z,1008.95
2023-02-11T07:11:23.178Z,1008.96
2023-02-11T07:12:23.154Z,1008.94
2023-02-11T07:13:23.134Z,1008.91
2023-02-11T07:14:23.135Z,1008.90
2023-02-11T07:15:23.121Z,1008.86
2023-02-11T07:16:23.177Z,1008.87
2023-02-11T07:17:23.108Z,1008.92
2023-02-11T07:18:23.104Z,1008.92
2023-02-11T07:19:23.094Z,1009.06
2023-02-11T07:20:23.093Z,1009.07
2023-02-11T07:21:23.099Z,1009.06
2023-02-11T07:22:23.071Z,1009.10
2023-02-11T07:23:23.044Z,1009.15
2023-02-11T07:24:24.047Z,1009.03
2023-02-11T07:25:23.046Z,1009.15
2023-02-11T07:26:23.048Z,1009.09
2023-02-11T07:27:23.062Z,1009.10
2023-02-11T07:28:23.062Z,1009.11
2023-02-11T07:29:23.012Z,1009.15
2023-02-11T07:30:23.000Z,1009.12
2023-02-11T07:31:23.139Z,1009.19
2023-02-11T07:32:23.011Z,1009.17
2023-02-11T07:33:22.977Z,1009.14
2023-02-11T07:34:23.023Z,1009.12
2023-02-11T07:35:22.964Z,1009.12
2023-02-11T07:36:22.961Z,1009.07
2023-02-11T07:37:22.978Z,1009.10
2023-02-11T07:38:22.942Z,1009.10
2023-02-11T07:39:22.938Z,1009.13
2023-02-11T07:40:22.926Z,1009.18
2023-02-11T07:41:22.927Z,1009.15
2023-02-11T07:42:22.938Z,1009.25
2023-02-11T07:43:22.900Z,1009.28
2023-02-11T07:44:22.901Z,1009.25
2023-02-11T07:45:22.899Z,1009.36
2023-02-11T07:46:22.983Z,1009.36
2023-02-11T07:47:22.899Z,1009.41
2023-02-11T07:48:22.867Z,1009.47
2023-02-11T07:49:22.870Z,1009.49
2023-02-11T07:50:22.851Z,1009.42
2023-02-11T07:51:22.849Z,1009.41
2023-02-11T07:52:22.857Z,1009.40
2023-02-11T07:53:22.830Z,1009.33
2023-02-11T07:54:22.813Z,1009.39
2023-02-11T07:55:22.814Z,1009.35
2023-02-11T07:56:22.808Z,1009.41
2023-02-11T07:57:22.823Z,1009.46
2023-02-11T07:58:22.780Z,1009.43
2023-02-11T07:59:22.773Z,1009.43
2023-02-11T08:00:22.765Z,1009.39
2023-02-11T08:01:22.813Z,1009.49
2023-02-11T08:02:22.848Z,1009.41
2023-02-11T08:03:22.742Z,1009.36
2023-02-11T08:04:22.733Z,1009.44
2023-02-11T08:05:22.730Z,1009.46
2023-02-11T08:06:22.721Z,1009.46
2023-02-11T08:07:22.748Z,1009.44
2023-02-11T08:08:22.703Z,1009.43
2023-02-11T08:09:22.694Z,1009.48
2023-02-11T08:10:22.681Z,1009.40
2023-02-11T08:11:22.688Z,1009.47
2023-02-11T08:12:22.702Z,1009.46
2023-02-11T08:13:22.662Z,1009.48
2023-02-11T08:14:22.669Z,1009.45
2023-02-11T08:15:22.657Z,1009.52
2023-02-11T08:16:22.679Z,1009.46
2023-02-11T08:17:22.656Z,1009.49
2023-02-11T08:18:22.618Z,1009.48
2023-02-11T08:19:22.612Z,1009.48
2023-02-11T08:20:22.605Z,1009.51
2023-02-11T08:21:22.615Z,1009.50
2023-02-11T08:22:22.615Z,1009.58
2023-02-11T08:23:22.590Z,1009.61
2023-02-11T08:24:22.575Z,1009.64
2023-02-11T08:25:22.563Z,1009.63
2023-02-11T08:26:22.555Z,1009.65
2023-02-11T08:27:22.569Z,1009.71
2023-02-11T08:28:22.591Z,1009.76
2023-02-11T08:29:22.537Z,1009.71
2023-02-11T08:30:22.526Z,1009.80
2023-02-11T08:31:22.669Z,1009.80
2023-02-11T08:32:22.620Z,1009.82
2023-02-11T08:33:22.492Z,1009.76
2023-02-11T08:34:23.494Z,1009.79
2023-02-11T08:35:22.487Z,1009.75
2023-02-11T08:36:22.476Z,1009.79
2023-02-11T08:37:22.491Z,1009.75
2023-02-11T08:38:22.467Z,1009.80
2023-02-11T08:39:22.521Z,1009.77
2023-02-11T08:40:22.447Z,1009.77
2023-02-11T08:41:22.436Z,1009.81
2023-02-11T08:42:22.476Z,1009.79
2023-02-11T08:43:22.419Z,1009.83
2023-02-11T08:44:22.419Z,1009.76
2023-02-11T08:45:22.405Z,1009.84
2023-02-11T08:46:22.411Z,1009.87
2023-02-11T08:47:22.424Z,1009.82
2023-02-11T08:48:22.390Z,1009.83
2023-02-11T08:49:22.371Z,1009.85
2023-02-11T08:50:22.366Z,1009.85
2023-02-11T08:51:22.366Z,1009.87
2023-02-11T08:52:22.374Z,1009.84
2023-02-11T08:53:22.364Z,1009.82
2023-02-11T08:54:22.340Z,1009.82
2023-02-11T08:55:22.329Z,1009.72
2023-02-11T08:56:22.335Z,1009.69
2023-02-11T08:57:22.326Z,1009.69
2023-02-11T08:58:22.342Z,1009.72
2023-02-11T08:59:22.312Z,1009.74
2023-02-11T09:00:22.299Z,1009.72
2023-02-11T09:01:23.078Z,1009.77
2023-02-11T09:02:23.307Z,1009.68
2023-02-11T09:03:22.307Z,1009.67
2023-02-11T09:04:22.283Z,1009.70
2023-02-11T09:05:22.260Z,1009.68
2023-02-11T09:06:22.261Z,1009.74
2023-02-11T09:07:22.245Z,1009.73
2023-02-11T09:08:22.266Z,1009.72
2023-02-11T09:09:22.228Z,1009.71
2023-02-11T09:10:22.222Z,1009.67
2023-02-11T09:11:22.200Z,1009.49
2023-02-11T09:12:22.204Z,1009.63
2023-02-11T09:13:22.218Z,1009.64
2023-02-11T09:14:22.202Z,1009.62
2023-02-11T09:15:22.192Z,1009.62
2023-02-11T09:16:22.201Z,1009.71
2023-02-11T09:17:22.162Z,1009.64
2023-02-11T09:18:22.179Z,1009.57
2023-02-11T09:19:22.149Z,1009.55
2023-02-11T09:20:22.143Z,1009.60
2023-02-11T09:21:22.153Z,1009.64
2023-02-11T09:22:22.154Z,1009.68
2023-02-11T09:23:22.185Z,1009.53
2023-02-11T09:24:22.111Z,1009.53
2023-02-11T09:25:22.105Z,1009.53
2023-02-11T09:26:22.092Z,1009.62
2023-02-11T09:27:22.084Z,1009.55
2023-02-11T09:28:22.122Z,1009.58
2023-02-11T09:29:22.083Z,1009.62
2023-02-11T09:30:22.113Z,1009.55
2023-02-11T09:31:22.194Z,1009.67
2023-02-11T09:32:23.054Z,1009.66
2023-02-11T09:33:22.079Z,1009.62
2023-02-11T09:34:22.037Z,1009.65
2023-02-11T09:35:22.027Z,1009.61
2023-02-11T09:36:22.022Z,1009.60
2023-02-11T09:37:22.013Z,1009.57
2023-02-11T09:38:22.035Z,1009.56
2023-02-11T09:39:22.000Z,1009.55
2023-02-11T09:40:22.991Z,1009.54
2023-02-11T09:41:21.988Z,1009.59
2023-02-11T09:42:21.983Z,1009.58
2023-02-11T09:43:21.997Z,1009.66
2023-02-11T09:44:21.965Z,1009.57
2023-02-11T09:45:21.958Z,1009.58
2023-02-11T09:46:22.028Z,1009.67
2023-02-11T09:47:21.933Z,1009.67
2023-02-11T09:48:21.951Z,1009.64
2023-02-11T09:49:21.923Z,1009.67
2023-02-11T09:50:21.984Z,1009.76
2023-02-11T09:51:21.908Z,1009.80
2023-02-11T09:52:21.899Z,1009.82
2023-02-11T09:53:21.917Z,1009.74
2023-02-11T09:54:21.888Z,1009.77
2023-02-11T09:55:21.885Z,1009.76
2023-02-11T09:56:21.874Z,1009.80
2023-02-11T09:57:28.611Z,1009.80
2023-02-11T09:58:23.892Z,1009.86
2023-02-11T09:59:21.850Z,1009.81
2023-02-11T10:00:21.905Z,1009.87
2023-02-11T10:01:21.984Z,1009.85
2023-02-11T10:02:21.829Z,1009.87
2023-02-11T10:03:21.854Z,1009.84
2023-02-11T10:04:21.842Z,1009.86
2023-02-11T10:05:21.807Z,1009.86
2023-02-11T10:06:21.800Z,1009.89
2023-02-11T10:07:21.838Z,1009.90
2023-02-11T10:08:21.805Z,1009.92
2023-02-11T10:09:21.775Z,1009.88
2023-02-11T10:10:21.802Z,1009.79
2023-02-11T10:11:31.178Z,1009.83
2023-02-11T10:12:23.769Z,1009.87
2023-02-11T10:13:22.769Z,1009.86
2023-02-11T10:14:21.749Z,1009.86
2023-02-11T10:15:21.739Z,1009.88
2023-02-11T10:16:21.728Z,1009.90
2023-02-11T10:17:21.711Z,1009.91
2023-02-11T10:18:21.727Z,1009.92
2023-02-11T10:19:21.694Z,1009.91
2023-02-11T10:20:21.904Z,1009.99
2023-02-11T10:21:21.683Z,1010.05
2023-02-11T10:22:21.675Z,1010.09
2023-02-11T10:23:21.685Z,1010.08
2023-02-11T10:24:21.654Z,1010.04
2023-02-11T10:25:21.662Z,1010.14
2023-02-11T10:26:21.638Z,1010.19
2023-02-11T10:27:21.655Z,1010.18
2023-02-11T10:28:21.712Z,1010.18
2023-02-11T10:29:21.623Z,1010.20
2023-02-11T10:30:21.611Z,1010.20
2023-02-11T10:31:21.738Z,1010.12
2023-02-11T10:32:21.595Z,1010.21
2023-02-11T10:33:21.616Z,1010.23
2023-02-11T10:34:21.582Z,1010.24
2023-02-11T10:35:21.586Z,1010.30
2023-02-11T10:36:21.571Z,1010.31
2023-02-11T10:37:21.562Z,1010.22
2023-02-11T10:38:21.557Z,1010.25
2023-02-11T10:39:21.579Z,1010.18
2023-02-11T10:40:21.538Z,1010.21
2023-02-11T10:41:21.528Z,1010.18
2023-02-11T10:42:21.525Z,1010.13
2023-02-11T10:43:21.517Z,1010.14
2023-02-11T10:44:21.536Z,1010.02
2023-02-11T10:45:21.503Z,1010.12
2023-02-11T10:46:21.594Z,1010.10
2023-02-11T10:47:21.483Z,1010.04
2023-02-11T10:48:21.489Z,1010.03
2023-02-11T10:49:21.491Z,1010.04
2023-02-11T10:50:21.465Z,1010.01
2023-02-11T10:51:21.469Z,1010.05
2023-02-11T10:52:21.446Z,1009.98
2023-02-11T10:53:21.448Z,1009.93
2023-02-11T10:54:21.458Z,1009.98
2023-02-11T10:55:21.422Z,1009.98
2023-02-11T10:56:21.414Z,1009.96
2023-02-11T10:57:21.409Z,1010.01
2023-02-11T10:58:21.397Z,1010.02
2023-02-11T10:59:21.729Z,1010.01
2023-02-11T11:00:22.380Z,1010.02
2023-02-11T11:01:24.682Z,1010.00
2023-02-11T11:02:22.369Z,1010.04
2023-02-11T11:03:21.358Z,1010.01
2023-02-11T11:04:21.424Z,1010.02
2023-02-11T11:05:21.341Z,1009.91
2023-02-11T11:06:21.364Z,1009.93
2023-02-11T11:07:21.333Z,1009.96
2023-02-11T11:08:21.318Z,1009.84
2023-02-11T11:09:21.341Z,1009.84
2023-02-11T11:10:21.300Z,1009.84
2023-02-11T11:11:21.295Z,1009.86
2023-02-11T11:12:21.288Z,1009.90
2023-02-11T11:13:21.316Z,1009.91
2023-02-11T11:14:21.294Z,1009.91
2023-02-11T11:15:21.266Z,1009.94
2023-02-11T11:16:21.336Z,1009.93
2023-02-11T11:17:21.254Z,1009.93
2023-02-11T11:18:23.043Z,1009.94
2023-02-11T11:19:22.263Z,1009.88
2023-02-11T11:20:21.221Z,1009.89
2023-02-11T11:21:21.216Z,1009.81
2023-02-11T11:22:21.211Z,1009.82
2023-02-11T11:23:21.198Z,1009.79
2023-02-11T11:24:21.230Z,1009.81
2023-02-11T11:25:21.187Z,1009.82
2023-02-11T11:26:21.189Z,1009.89
2023-02-11T11:27:21.170Z,1009.81
2023-02-11T11:28:21.200Z,1009.82
2023-02-11T11:29:21.187Z,1009.84
2023-02-11T11:30:21.145Z,1009.78
2023-02-11T11:31:21.272Z,1009.89
2023-02-11T11:32:21.130Z,1009.84
2023-02-11T11:33:21.120Z,1009.81
2023-02-11T11:34:21.139Z,1009.82
2023-02-11T11:35:21.117Z,1009.88
2023-02-11T11:36:21.115Z,1009.83
2023-02-11T11:37:21.092Z,1009.85
2023-02-11T11:38:21.092Z,1009.80
2023-02-11T11:39:21.114Z,1009.82
2023-02-11T11:40:21.084Z,1009.71
2023-02-11T11:41:21.075Z,1009.83
2023-02-11T11:42:21.058Z,1009.75
2023-02-11T11:43:23.205Z,1009.72
2023-02-11T11:44:22.061Z,1009.76
2023-02-11T11:45:21.025Z,1009.90
2023-02-11T11:46:21.034Z,1009.85
2023-02-11T11:47:21.014Z,1009.86
2023-02-11T11:48:21.000Z,1009.86
2023-02-11T11:49:21.037Z,1009.86
2023-02-11T11:50:21.287Z,1009.84
2023-02-11T11:51:21.977Z,1009.89
2023-02-11T11:52:20.987Z,1009.87
2023-02-11T11:53:21.963Z,1009.87
2023-02-11T11:54:20.984Z,1009.86
2023-02-11T11:55:20.962Z,1009.82
2023-02-11T11:56:20.939Z,1009.83
2023-02-11T11:57:20.961Z,1009.78
2023-02-11T11:58:20.934Z,1009.68
2023-02-11T11:59:20.921Z,1009.76
2023-02-11T12:00:20.940Z,1009.74
2023-02-11T12:01:20.905Z,1009.72
2023-02-11T12:02:21.007Z,1009.72
2023-02-11T12:03:20.936Z,1009.75
2023-02-11T12:04:20.889Z,1009.74
2023-02-11T12:05:20.909Z,1009.75